sensor_id;sensor_type;location;lat;lon;timestamp;P1;durP1;ratioP1;P2;durP2;ratioP2
61385;SDS011;47256;18.904;-99.054;2023-06-04T00:00:21;17.80;;;13.48;;
61385;SDS011;47256;18.904;-99.054;2023-06-04T00:02:48;15.80;;;12.73;;
61385;SDS011;47256;18.904;-99.054;2023-06-04T00:05:20;20.30;;;14.05;;
61385;SDS011;47256;18.904;-99.054;2023-06-04T00:07:52;61.92;;;16.70;;
61385;SDS011;47256;18.904;-99.054;2023-06-04T00:10:20;27.60;;;14.45;;
61385;SDS011;47256;18.904;-99.054;2023-06-04T00:12:48;23.10;;;15.35;;
61385;SDS011;47256;18.904;-99.054;2023-06-04T00:15:16;32.08;;;15.38;;
61385;SDS011;47256;18.904;-99.054;2023-06-04T00:17:43;58.25;;;19.65;;
61385;SDS011;47256;18.904;-99.054;2023-06-04T00:20:11;36.10;;;17.40;;
61385;SDS011;47256;18.904;-99.054;2023-06-04T00:22:39;32.65;;;17.50;;
61385;SDS011;47256;18.904;-99.054;2023-06-04T00:25:09;32.70;;;16.65;;
61385;SDS011;47256;18.904;-99.054;2023-06-04T00:27:37;40.38;;;17.88;;
61385;SDS011;47256;18.904;-99.054;2023-06-04T00:30:04;32.38;;;18.48;;
61385;SDS011;47256;18.904;-99.054;2023-06-04T00:32:32;37.63;;;19.23;;
61385;SDS011;47256;18.904;-99.054;2023-06-04T00:35:00;40.72;;;18.77;;
61385;SDS011;47256;18.904;-99.054;2023-06-04T00:37:28;42.95;;;18.23;;
61385;SDS011;47256;18.904;-99.054;2023-06-04T00:39:56;27.48;;;17.13;;
61385;SDS011;47256;18.904;-99.054;2023-06-04T00:42:23;47.05;;;18.42;;
61385;SDS011;47256;18.904;-99.054;2023-06-04T00:44:51;22.77;;;15.55;;
61385;SDS011;47256;18.904;-99.054;2023-06-04T00:47:19;48.10;;;17.42;;
61385;SDS011;47256;18.904;-99.054;2023-06-04T00:49:47;35.78;;;18.27;;
61385;SDS011;47256;18.904;-99.054;2023-06-04T00:52:15;30.67;;;16.02;;
61385;SDS011;47256;18.904;-99.054;2023-06-04T00:54:43;26.40;;;16.60;;
61385;SDS011;47256;18.904;-99.054;2023-06-04T00:57:10;24.73;;;16.63;;
61385;SDS011;47256;18.904;-99.054;2023-06-04T00:59:38;26.20;;;15.32;;
61385;SDS011;47256;18.904;-99.054;2023-06-04T01:02:12;25.38;;;16.10;;
61385;SDS011;47256;18.904;-99.054;2023-06-04T01:07:39;34.88;;;16.88;;
61385;SDS011;47256;18.904;-99.054;2023-06-04T01:10:12;26.70;;;15.20;;
61385;SDS011;47256;18.904;-99.054;2023-06-04T01:12:40;26.88;;;13.85;;
61385;SDS011;47256;18.904;-99.054;2023-06-04T01:15:12;17.95;;;12.45;;
61385;SDS011;47256;18.904;-99.054;2023-06-04T01:17:40;15.57;;;12.05;;
61385;SDS011;47256;18.904;-99.054;2023-06-04T01:26:15;19.75;;;13.52;;
61385;SDS011;47256;18.904;-99.054;2023-06-04T01:28:43;19.63;;;12.88;;
61385;SDS011;47256;18.904;-99.054;2023-06-04T01:31:12;21.60;;;12.95;;
61385;SDS011;47256;18.904;-99.054;2023-06-04T01:33:40;21.10;;;13.82;;
61385;SDS011;47256;18.904;-99.054;2023-06-04T01:36:08;16.23;;;12.32;;
61385;SDS011;47256;18.904;-99.054;2023-06-04T01:38:37;15.90;;;12.70;;
61385;SDS011;47256;18.904;-99.054;2023-06-04T01:41:04;14.70;;;12.05;;
61385;SDS011;47256;18.904;-99.054;2023-06-04T01:43:32;18.10;;;13.07;;
61385;SDS011;47256;18.904;-99.054;2023-06-04T01:46:01;17.98;;;13.15;;
61385;SDS011;47256;18.904;-99.054;2023-06-04T01:48:29;23.40;;;13.40;;
61385;SDS011;47256;18.904;-99.054;2023-06-04T01:50:57;23.17;;;13.50;;
61385;SDS011;47256;18.904;-99.054;2023-06-04T01:53:24;22.88;;;13.73;;
61385;SDS011;47256;18.904;-99.054;2023-06-04T01:55:53;25.17;;;12.77;;
61385;SDS011;47256;18.904;-99.054;2023-06-04T01:58:20;26.02;;;13.73;;
61385;SDS011;47256;18.904;-99.054;2023-06-04T02:00:49;57.92;;;16.95;;
61385;SDS011;47256;18.904;-99.054;2023-06-04T02:03:16;41.20;;;14.93;;
61385;SDS011;47256;18.904;-99.054;2023-06-04T02:05:47;34.33;;;16.75;;
61385;SDS011;47256;18.904;-99.054;2023-06-04T02:08:15;86.93;;;19.20;;
61385;SDS011;47256;18.904;-99.054;2023-06-04T02:10:48;47.42;;;17.25;;
61385;SDS011;47256;18.904;-99.054;2023-06-04T02:13:15;41.67;;;16.20;;
61385;SDS011;47256;18.904;-99.054;2023-06-04T02:15:42;31.05;;;14.38;;
61385;SDS011;47256;18.904;-99.054;2023-06-04T02:18:19;34.33;;;14.40;;
61385;SDS011;47256;18.904;-99.054;2023-06-04T02:20:48;18.13;;;12.63;;
61385;SDS011;47256;18.904;-99.054;2023-06-04T02:23:17;35.03;;;13.65;;
61385;SDS011;47256;18.904;-99.054;2023-06-04T02:25:45;29.65;;;13.85;;
61385;SDS011;47256;18.904;-99.054;2023-06-04T02:28:14;83.18;;;17.38;;
61385;SDS011;47256;18.904;-99.054;2023-06-04T02:30:42;50.78;;;14.52;;
61385;SDS011;47256;18.904;-99.054;2023-06-04T02:33:11;37.03;;;12.50;;
61385;SDS011;47256;18.904;-99.054;2023-06-04T02:35:39;34.20;;;12.70;;
61385;SDS011;47256;18.904;-99.054;2023-06-04T02:38:06;46.92;;;12.27;;
61385;SDS011;47256;18.904;-99.054;2023-06-04T02:40:34;36.00;;;11.63;;
61385;SDS011;47256;18.904;-99.054;2023-06-04T02:43:01;21.70;;;10.73;;
61385;SDS011;47256;18.904;-99.054;2023-06-04T02:45:28;24.27;;;11.80;;
61385;SDS011;47256;18.904;-99.054;2023-06-04T02:47:56;26.48;;;12.77;;
61385;SDS011;47256;18.904;-99.054;2023-06-04T02:50:23;24.70;;;11.02;;
61385;SDS011;47256;18.904;-99.054;2023-06-04T02:52:50;17.42;;;10.77;;
61385;SDS011;47256;18.904;-99.054;2023-06-04T02:55:17;20.30;;;10.52;;
61385;SDS011;47256;18.904;-99.054;2023-06-04T02:57:44;21.90;;;10.52;;
61385;SDS011;47256;18.904;-99.054;2023-06-04T03:00:12;24.90;;;11.23;;
61385;SDS011;47256;18.904;-99.054;2023-06-04T03:02:44;26.85;;;11.25;;
61385;SDS011;47256;18.904;-99.054;2023-06-04T03:05:14;19.40;;;10.50;;
61385;SDS011;47256;18.904;-99.054;2023-06-04T03:07:43;21.63;;;11.15;;
61385;SDS011;47256;18.904;-99.054;2023-06-04T03:10:11;28.45;;;11.10;;
61385;SDS011;47256;18.904;-99.054;2023-06-04T03:12:40;18.83;;;10.55;;
61385;SDS011;47256;18.904;-99.054;2023-06-04T03:15:07;21.65;;;10.55;;
61385;SDS011;47256;18.904;-99.054;2023-06-04T03:17:35;21.30;;;10.50;;
61385;SDS011;47256;18.904;-99.054;2023-06-04T03:20:03;22.02;;;10.85;;
61385;SDS011;47256;18.904;-99.054;2023-06-04T03:22:30;21.90;;;11.05;;
61385;SDS011;47256;18.904;-99.054;2023-06-04T03:25:00;16.95;;;9.77;;
61385;SDS011;47256;18.904;-99.054;2023-06-04T03:27:27;22.98;;;9.68;;
61385;SDS011;47256;18.904;-99.054;2023-06-04T03:29:56;21.05;;;8.50;;
61385;SDS011;47256;18.904;-99.054;2023-06-04T03:32:23;12.05;;;8.65;;
61385;SDS011;47256;18.904;-99.054;2023-06-04T03:34:51;13.38;;;8.13;;
61385;SDS011;47256;18.904;-99.054;2023-06-04T03:37:18;11.75;;;7.93;;
61385;SDS011;47256;18.904;-99.054;2023-06-04T03:39:45;18.33;;;8.48;;
61385;SDS011;47256;18.904;-99.054;2023-06-04T03:42:15;19.40;;;8.82;;
61385;SDS011;47256;18.904;-99.054;2023-06-04T03:44:42;15.80;;;8.57;;
61385;SDS011;47256;18.904;-99.054;2023-06-04T03:47:10;10.98;;;7.78;;
61385;SDS011;47256;18.904;-99.054;2023-06-04T03:49:39;19.13;;;8.95;;
61385;SDS011;47256;18.904;-99.054;2023-06-04T03:52:06;13.70;;;8.30;;
61385;SDS011;47256;18.904;-99.054;2023-06-04T03:54:35;14.30;;;7.72;;
61385;SDS011;47256;18.904;-99.054;2023-06-04T03:57:02;12.30;;;8.20;;
61385;SDS011;47256;18.904;-99.054;2023-06-04T03:59:29;11.07;;;8.13;;
61385;SDS011;47256;18.904;-99.054;2023-06-04T04:01:57;12.80;;;8.48;;
61385;SDS011;47256;18.904;-99.054;2023-06-04T04:04:26;19.85;;;7.93;;
61385;SDS011;47256;18.904;-99.054;2023-06-04T04:06:54;13.82;;;7.60;;
61385;SDS011;47256;18.904;-99.054;2023-06-04T04:09:21;9.77;;;7.75;;
61385;SDS011;47256;18.904;-99.054;2023-06-04T04:11:48;15.35;;;8.05;;
61385;SDS011;47256;18.904;-99.054;2023-06-04T04:14:15;15.93;;;7.88;;
61385;SDS011;47256;18.904;-99.054;2023-06-04T04:16:42;15.10;;;8.82;;
61385;SDS011;47256;18.904;-99.054;2023-06-04T04:19:09;15.05;;;8.55;;
61385;SDS011;47256;18.904;-99.054;2023-06-04T04:21:38;12.52;;;7.70;;
61385;SDS011;47256;18.904;-99.054;2023-06-04T04:24:06;11.65;;;7.85;;
61385;SDS011;47256;18.904;-99.054;2023-06-04T04:26:34;10.65;;;7.90;;
61385;SDS011;47256;18.904;-99.054;2023-06-04T04:29:02;15.90;;;8.38;;
61385;SDS011;47256;18.904;-99.054;2023-06-04T04:31:31;14.60;;;7.90;;
61385;SDS011;47256;18.904;-99.054;2023-06-04T04:34:06;15.07;;;8.07;;
61385;SDS011;47256;18.904;-99.054;2023-06-04T04:36:38;10.82;;;7.63;;
61385;SDS011;47256;18.904;-99.054;2023-06-04T04:39:08;12.55;;;8.65;;
61385;SDS011;47256;18.904;-99.054;2023-06-04T04:41:36;11.68;;;8.13;;
61385;SDS011;47256;18.904;-99.054;2023-06-04T04:44:04;14.85;;;8.13;;
61385;SDS011;47256;18.904;-99.054;2023-06-04T04:46:32;12.13;;;7.75;;
61385;SDS011;47256;18.904;-99.054;2023-06-04T04:48:59;12.38;;;8.60;;
61385;SDS011;47256;18.904;-99.054;2023-06-04T04:51:27;12.30;;;8.50;;
61385;SDS011;47256;18.904;-99.054;2023-06-04T04:53:55;15.70;;;7.72;;
61385;SDS011;47256;18.904;-99.054;2023-06-04T04:56:24;13.07;;;9.20;;
61385;SDS011;47256;18.904;-99.054;2023-06-04T04:58:52;10.50;;;8.65;;
61385;SDS011;47256;18.904;-99.054;2023-06-04T05:01:20;14.73;;;9.23;;
61385;SDS011;47256;18.904;-99.054;2023-06-04T05:03:53;16.35;;;9.10;;
61385;SDS011;47256;18.904;-99.054;2023-06-04T05:06:23;16.05;;;8.73;;
61385;SDS011;47256;18.904;-99.054;2023-06-04T05:08:51;11.85;;;8.00;;
61385;SDS011;47256;18.904;-99.054;2023-06-04T05:11:19;16.88;;;8.30;;
61385;SDS011;47256;18.904;-99.054;2023-06-04T05:13:47;16.13;;;7.75;;
61385;SDS011;47256;18.904;-99.054;2023-06-04T05:16:16;17.52;;;7.85;;
61385;SDS011;47256;18.904;-99.054;2023-06-04T05:18:47;12.80;;;7.90;;
61385;SDS011;47256;18.904;-99.054;2023-06-04T05:21:20;12.10;;;7.95;;
61385;SDS011;47256;18.904;-99.054;2023-06-04T05:23:54;13.00;;;7.75;;
61385;SDS011;47256;18.904;-99.054;2023-06-04T05:26:25;12.88;;;6.95;;
61385;SDS011;47256;18.904;-99.054;2023-06-04T05:28:57;13.77;;;7.72;;
61385;SDS011;47256;18.904;-99.054;2023-06-04T05:31:24;12.32;;;7.53;;
61385;SDS011;47256;18.904;-99.054;2023-06-04T05:33:54;12.45;;;7.47;;
61385;SDS011;47256;18.904;-99.054;2023-06-04T05:36:22;13.80;;;7.22;;
61385;SDS011;47256;18.904;-99.054;2023-06-04T05:38:54;18.83;;;8.10;;
61385;SDS011;47256;18.904;-99.054;2023-06-04T05:41:27;14.73;;;7.63;;
61385;SDS011;47256;18.904;-99.054;2023-06-04T05:43:54;16.30;;;7.90;;
61385;SDS011;47256;18.904;-99.054;2023-06-04T05:46:21;14.52;;;7.28;;
61385;SDS011;47256;18.904;-99.054;2023-06-04T05:48:49;11.43;;;7.30;;
61385;SDS011;47256;18.904;-99.054;2023-06-04T05:51:17;15.48;;;8.15;;
61385;SDS011;47256;18.904;-99.054;2023-06-04T05:53:45;10.05;;;7.25;;
61385;SDS011;47256;18.904;-99.054;2023-06-04T05:56:13;15.45;;;7.63;;
61385;SDS011;47256;18.904;-99.054;2023-06-04T05:58:41;12.38;;;8.10;;
61385;SDS011;47256;18.904;-99.054;2023-06-04T06:04:02;17.23;;;7.28;;
61385;SDS011;47256;18.904;-99.054;2023-06-04T06:06:30;12.32;;;7.40;;
61385;SDS011;47256;18.904;-99.054;2023-06-04T06:08:59;14.00;;;6.95;;
61385;SDS011;47256;18.904;-99.054;2023-06-04T06:11:28;14.60;;;7.50;;
61385;SDS011;47256;18.904;-99.054;2023-06-04T06:13:56;11.90;;;7.90;;
61385;SDS011;47256;18.904;-99.054;2023-06-04T06:16:23;12.60;;;7.10;;
61385;SDS011;47256;18.904;-99.054;2023-06-04T06:18:50;12.02;;;7.25;;
61385;SDS011;47256;18.904;-99.054;2023-06-04T06:21:17;11.65;;;7.95;;
61385;SDS011;47256;18.904;-99.054;2023-06-04T06:23:45;14.27;;;8.38;;
61385;SDS011;47256;18.904;-99.054;2023-06-04T06:26:13;15.15;;;8.10;;
61385;SDS011;47256;18.904;-99.054;2023-06-04T06:28:45;15.13;;;8.02;;
61385;SDS011;47256;18.904;-99.054;2023-06-04T06:31:13;15.60;;;7.95;;
61385;SDS011;47256;18.904;-99.054;2023-06-04T06:33:41;14.40;;;7.80;;
61385;SDS011;47256;18.904;-99.054;2023-06-04T06:36:11;18.05;;;7.43;;
61385;SDS011;47256;18.904;-99.054;2023-06-04T06:38:39;11.95;;;7.38;;
61385;SDS011;47256;18.904;-99.054;2023-06-04T06:41:06;14.30;;;7.82;;
61385;SDS011;47256;18.904;-99.054;2023-06-04T06:43:34;13.65;;;7.18;;
61385;SDS011;47256;18.904;-99.054;2023-06-04T06:46:01;15.02;;;8.60;;
61385;SDS011;47256;18.904;-99.054;2023-06-04T06:48:28;15.27;;;8.32;;
61385;SDS011;47256;18.904;-99.054;2023-06-04T06:50:55;18.33;;;7.50;;
61385;SDS011;47256;18.904;-99.054;2023-06-04T06:53:22;17.40;;;8.05;;
61385;SDS011;47256;18.904;-99.054;2023-06-04T06:55:49;13.13;;;7.53;;
61385;SDS011;47256;18.904;-99.054;2023-06-04T06:58:16;13.65;;;8.35;;
61385;SDS011;47256;18.904;-99.054;2023-06-04T07:00:43;12.52;;;7.38;;
61385;SDS011;47256;18.904;-99.054;2023-06-04T07:03:10;13.40;;;7.18;;
61385;SDS011;47256;18.904;-99.054;2023-06-04T07:05:38;12.77;;;8.25;;
61385;SDS011;47256;18.904;-99.054;2023-06-04T07:08:07;13.02;;;7.70;;
61385;SDS011;47256;18.904;-99.054;2023-06-04T07:10:34;22.13;;;8.40;;
61385;SDS011;47256;18.904;-99.054;2023-06-04T07:13:01;14.32;;;7.88;;
61385;SDS011;47256;18.904;-99.054;2023-06-04T07:15:27;12.30;;;7.68;;
61385;SDS011;47256;18.904;-99.054;2023-06-04T07:17:55;11.20;;;7.97;;
61385;SDS011;47256;18.904;-99.054;2023-06-04T07:20:22;88.57;;;12.90;;
61385;SDS011;47256;18.904;-99.054;2023-06-04T07:22:49;87.95;;;14.27;;
61385;SDS011;47256;18.904;-99.054;2023-06-04T07:25:16;329.83;;;36.42;;
61385;SDS011;47256;18.904;-99.054;2023-06-04T07:27:43;51.63;;;11.82;;
61385;SDS011;47256;18.904;-99.054;2023-06-04T07:30:11;18.88;;;8.95;;
61385;SDS011;47256;18.904;-99.054;2023-06-04T07:32:38;14.38;;;8.18;;
61385;SDS011;47256;18.904;-99.054;2023-06-04T07:35:05;18.20;;;8.45;;
61385;SDS011;47256;18.904;-99.054;2023-06-04T07:37:33;23.10;;;9.38;;
61385;SDS011;47256;18.904;-99.054;2023-06-04T07:40:00;18.73;;;8.13;;
61385;SDS011;47256;18.904;-99.054;2023-06-04T07:42:27;17.02;;;8.00;;
61385;SDS011;47256;18.904;-99.054;2023-06-04T07:44:54;11.38;;;8.05;;
61385;SDS011;47256;18.904;-99.054;2023-06-04T07:47:21;14.00;;;7.43;;
61385;SDS011;47256;18.904;-99.054;2023-06-04T07:49:48;10.23;;;8.32;;
61385;SDS011;47256;18.904;-99.054;2023-06-04T07:52:15;14.52;;;8.13;;
61385;SDS011;47256;18.904;-99.054;2023-06-04T07:54:42;14.27;;;8.07;;
61385;SDS011;47256;18.904;-99.054;2023-06-04T07:57:09;11.65;;;7.07;;
61385;SDS011;47256;18.904;-99.054;2023-06-04T07:59:36;15.65;;;8.30;;
61385;SDS011;47256;18.904;-99.054;2023-06-04T08:02:04;14.82;;;8.30;;
61385;SDS011;47256;18.904;-99.054;2023-06-04T08:04:32;10.93;;;8.00;;
61385;SDS011;47256;18.904;-99.054;2023-06-04T08:06:59;11.23;;;8.35;;
61385;SDS011;47256;18.904;-99.054;2023-06-04T08:09:26;16.15;;;8.85;;
61385;SDS011;47256;18.904;-99.054;2023-06-04T08:11:53;15.60;;;8.63;;
61385;SDS011;47256;18.904;-99.054;2023-06-04T08:14:20;18.73;;;8.63;;
61385;SDS011;47256;18.904;-99.054;2023-06-04T08:16:48;17.10;;;8.38;;
61385;SDS011;47256;18.904;-99.054;2023-06-04T08:19:15;15.35;;;8.07;;
61385;SDS011;47256;18.904;-99.054;2023-06-04T08:21:42;18.60;;;8.32;;
61385;SDS011;47256;18.904;-99.054;2023-06-04T08:24:10;19.27;;;9.07;;
61385;SDS011;47256;18.904;-99.054;2023-06-04T08:26:37;32.13;;;10.15;;
61385;SDS011;47256;18.904;-99.054;2023-06-04T08:29:04;23.58;;;9.85;;
61385;SDS011;47256;18.904;-99.054;2023-06-04T08:31:32;17.88;;;9.40;;
61385;SDS011;47256;18.904;-99.054;2023-06-04T08:33:59;15.68;;;8.07;;
61385;SDS011;47256;18.904;-99.054;2023-06-04T08:36:27;14.65;;;9.30;;
61385;SDS011;47256;18.904;-99.054;2023-06-04T08:38:54;17.05;;;9.40;;
61385;SDS011;47256;18.904;-99.054;2023-06-04T08:41:34;13.95;;;9.30;;
61385;SDS011;47256;18.904;-99.054;2023-06-04T08:44:10;18.17;;;8.77;;
61385;SDS011;47256;18.904;-99.054;2023-06-04T08:46:38;14.05;;;8.90;;
61385;SDS011;47256;18.904;-99.054;2023-06-04T08:49:05;14.57;;;9.00;;
61385;SDS011;47256;18.904;-99.054;2023-06-04T08:51:34;17.92;;;8.90;;
61385;SDS011;47256;18.904;-99.054;2023-06-04T08:54:07;15.48;;;8.90;;
61385;SDS011;47256;18.904;-99.054;2023-06-04T08:56:35;16.80;;;9.57;;
61385;SDS011;47256;18.904;-99.054;2023-06-04T08:59:03;18.13;;;9.30;;
61385;SDS011;47256;18.904;-99.054;2023-06-04T09:01:33;16.63;;;9.75;;
61385;SDS011;47256;18.904;-99.054;2023-06-04T09:04:05;17.83;;;9.80;;
61385;SDS011;47256;18.904;-99.054;2023-06-04T09:06:35;27.75;;;10.05;;
61385;SDS011;47256;18.904;-99.054;2023-06-04T09:09:03;15.27;;;9.93;;
61385;SDS011;47256;18.904;-99.054;2023-06-04T09:11:36;19.05;;;9.70;;
61385;SDS011;47256;18.904;-99.054;2023-06-04T09:14:21;17.05;;;9.57;;
61385;SDS011;47256;18.904;-99.054;2023-06-04T09:16:49;20.88;;;10.40;;
61385;SDS011;47256;18.904;-99.054;2023-06-04T09:19:18;18.77;;;9.77;;
61385;SDS011;47256;18.904;-99.054;2023-06-04T09:21:55;12.30;;;9.70;;
61385;SDS011;47256;18.904;-99.054;2023-06-04T09:24:25;18.10;;;9.98;;
61385;SDS011;47256;18.904;-99.054;2023-06-04T09:27:09;19.63;;;9.07;;
61385;SDS011;47256;18.904;-99.054;2023-06-04T09:29:48;21.15;;;9.95;;
61385;SDS011;47256;18.904;-99.054;2023-06-04T09:32:23;18.27;;;9.48;;
61385;SDS011;47256;18.904;-99.054;2023-06-04T09:37:55;14.40;;;9.18;;
61385;SDS011;47256;18.904;-99.054;2023-06-04T09:40:24;27.73;;;9.55;;
61385;SDS011;47256;18.904;-99.054;2023-06-04T09:43:00;23.50;;;9.23;;
61385;SDS011;47256;18.904;-99.054;2023-06-04T09:45:31;22.67;;;9.32;;
61385;SDS011;47256;18.904;-99.054;2023-06-04T09:48:01;16.33;;;8.85;;
61385;SDS011;47256;18.904;-99.054;2023-06-04T09:50:33;13.65;;;9.52;;
61385;SDS011;47256;18.904;-99.054;2023-06-04T09:53:12;19.70;;;9.10;;
61385;SDS011;47256;18.904;-99.054;2023-06-04T09:55:42;19.83;;;10.18;;
61385;SDS011;47256;18.904;-99.054;2023-06-04T09:58:10;22.52;;;9.80;;
61385;SDS011;47256;18.904;-99.054;2023-06-04T10:00:41;37.08;;;10.35;;
61385;SDS011;47256;18.904;-99.054;2023-06-04T10:03:10;21.58;;;9.30;;
61385;SDS011;47256;18.904;-99.054;2023-06-04T10:05:41;33.58;;;9.45;;
61385;SDS011;47256;18.904;-99.054;2023-06-04T10:08:09;20.88;;;9.27;;
61385;SDS011;47256;18.904;-99.054;2023-06-04T10:10:40;15.52;;;9.45;;
61385;SDS011;47256;18.904;-99.054;2023-06-04T10:13:09;17.67;;;8.95;;
61385;SDS011;47256;18.904;-99.054;2023-06-04T10:15:46;12.45;;;8.98;;
61385;SDS011;47256;18.904;-99.054;2023-06-04T10:18:14;16.30;;;8.77;;
61385;SDS011;47256;18.904;-99.054;2023-06-04T10:20:41;15.63;;;8.43;;
61385;SDS011;47256;18.904;-99.054;2023-06-04T10:23:08;13.88;;;10.43;;
61385;SDS011;47256;18.904;-99.054;2023-06-04T10:25:35;17.10;;;9.23;;
61385;SDS011;47256;18.904;-99.054;2023-06-04T10:28:03;14.95;;;8.95;;
61385;SDS011;47256;18.904;-99.054;2023-06-04T10:30:30;20.92;;;10.45;;
61385;SDS011;47256;18.904;-99.054;2023-06-04T10:32:57;16.95;;;8.75;;
61385;SDS011;47256;18.904;-99.054;2023-06-04T10:35:34;17.13;;;10.65;;
61385;SDS011;47256;18.904;-99.054;2023-06-04T10:38:09;16.55;;;10.57;;
61385;SDS011;47256;18.904;-99.054;2023-06-04T10:40:37;17.17;;;9.50;;
61385;SDS011;47256;18.904;-99.054;2023-06-04T10:43:05;20.13;;;10.05;;
61385;SDS011;47256;18.904;-99.054;2023-06-04T10:45:33;17.77;;;9.65;;
61385;SDS011;47256;18.904;-99.054;2023-06-04T10:48:01;19.52;;;9.77;;
61385;SDS011;47256;18.904;-99.054;2023-06-04T10:50:29;20.60;;;10.70;;
61385;SDS011;47256;18.904;-99.054;2023-06-04T10:52:57;21.48;;;10.82;;
61385;SDS011;47256;18.904;-99.054;2023-06-04T10:55:24;17.88;;;10.45;;
61385;SDS011;47256;18.904;-99.054;2023-06-04T10:57:52;14.35;;;10.68;;
61385;SDS011;47256;18.904;-99.054;2023-06-04T11:00:40;18.13;;;10.00;;
61385;SDS011;47256;18.904;-99.054;2023-06-04T11:03:10;16.42;;;9.93;;
61385;SDS011;47256;18.904;-99.054;2023-06-04T11:05:38;17.75;;;9.75;;
61385;SDS011;47256;18.904;-99.054;2023-06-04T11:08:07;18.73;;;9.77;;
61385;SDS011;47256;18.904;-99.054;2023-06-04T11:10:36;20.42;;;10.18;;
61385;SDS011;47256;18.904;-99.054;2023-06-04T11:13:05;16.70;;;10.05;;
61385;SDS011;47256;18.904;-99.054;2023-06-04T11:15:39;17.60;;;9.52;;
61385;SDS011;47256;18.904;-99.054;2023-06-04T11:18:30;17.20;;;10.60;;
61385;SDS011;47256;18.904;-99.054;2023-06-04T11:21:00;22.05;;;10.93;;
61385;SDS011;47256;18.904;-99.054;2023-06-04T11:23:28;19.60;;;10.05;;
61385;SDS011;47256;18.904;-99.054;2023-06-04T11:25:55;17.90;;;11.48;;
61385;SDS011;47256;18.904;-99.054;2023-06-04T11:28:24;19.92;;;10.23;;
61385;SDS011;47256;18.904;-99.054;2023-06-04T11:31:00;18.75;;;11.95;;
61385;SDS011;47256;18.904;-99.054;2023-06-04T11:33:29;16.60;;;10.73;;
61385;SDS011;47256;18.904;-99.054;2023-06-04T11:35:56;24.13;;;11.23;;
61385;SDS011;47256;18.904;-99.054;2023-06-04T11:38:23;23.38;;;12.45;;
61385;SDS011;47256;18.904;-99.054;2023-06-04T11:40:55;21.27;;;11.07;;
61385;SDS011;47256;18.904;-99.054;2023-06-04T11:43:26;28.27;;;12.13;;
61385;SDS011;47256;18.904;-99.054;2023-06-04T11:45:54;17.33;;;10.00;;
61385;SDS011;47256;18.904;-99.054;2023-06-04T11:48:22;15.35;;;9.68;;
61385;SDS011;47256;18.904;-99.054;2023-06-04T11:50:49;23.63;;;10.10;;
61385;SDS011;47256;18.904;-99.054;2023-06-04T11:53:16;25.10;;;11.02;;
61385;SDS011;47256;18.904;-99.054;2023-06-04T11:55:43;18.45;;;10.98;;
61385;SDS011;47256;18.904;-99.054;2023-06-04T11:58:10;21.50;;;10.65;;
61385;SDS011;47256;18.904;-99.054;2023-06-04T12:00:37;20.65;;;10.55;;
61385;SDS011;47256;18.904;-99.054;2023-06-04T12:03:05;19.02;;;9.52;;
61385;SDS011;47256;18.904;-99.054;2023-06-04T12:05:32;20.63;;;11.07;;
61385;SDS011;47256;18.904;-99.054;2023-06-04T12:08:07;15.75;;;8.93;;
61385;SDS011;47256;18.904;-99.054;2023-06-04T12:10:38;21.98;;;10.35;;
61385;SDS011;47256;18.904;-99.054;2023-06-04T12:13:07;20.27;;;9.63;;
61385;SDS011;47256;18.904;-99.054;2023-06-04T12:15:34;17.52;;;8.95;;
61385;SDS011;47256;18.904;-99.054;2023-06-04T12:18:02;22.50;;;8.88;;
61385;SDS011;47256;18.904;-99.054;2023-06-04T12:20:38;18.95;;;8.77;;
61385;SDS011;47256;18.904;-99.054;2023-06-04T12:23:08;16.10;;;7.80;;
61385;SDS011;47256;18.904;-99.054;2023-06-04T12:25:49;19.35;;;9.18;;
61385;SDS011;47256;18.904;-99.054;2023-06-04T12:28:17;12.45;;;8.63;;
61385;SDS011;47256;18.904;-99.054;2023-06-04T12:30:44;17.00;;;7.63;;
61385;SDS011;47256;18.904;-99.054;2023-06-04T12:33:11;14.43;;;7.78;;
61385;SDS011;47256;18.904;-99.054;2023-06-04T12:35:39;25.90;;;8.27;;
61385;SDS011;47256;18.904;-99.054;2023-06-04T12:38:07;19.95;;;8.13;;
61385;SDS011;47256;18.904;-99.054;2023-06-04T12:40:35;12.60;;;7.97;;
61385;SDS011;47256;18.904;-99.054;2023-06-04T12:43:02;17.88;;;8.70;;
61385;SDS011;47256;18.904;-99.054;2023-06-04T12:45:28;23.85;;;9.77;;
61385;SDS011;47256;18.904;-99.054;2023-06-04T12:47:56;38.10;;;10.30;;
61385;SDS011;47256;18.904;-99.054;2023-06-04T12:50:23;54.20;;;11.60;;
61385;SDS011;47256;18.904;-99.054;2023-06-04T12:52:50;36.20;;;11.27;;
61385;SDS011;47256;18.904;-99.054;2023-06-04T12:55:16;17.70;;;9.73;;
61385;SDS011;47256;18.904;-99.054;2023-06-04T12:57:44;16.88;;;9.80;;
61385;SDS011;47256;18.904;-99.054;2023-06-04T13:00:11;19.95;;;9.98;;
61385;SDS011;47256;18.904;-99.054;2023-06-04T13:02:42;29.45;;;10.55;;
61385;SDS011;47256;18.904;-99.054;2023-06-04T13:05:10;16.80;;;9.27;;
61385;SDS011;47256;18.904;-99.054;2023-06-04T13:07:37;24.17;;;11.35;;
61385;SDS011;47256;18.904;-99.054;2023-06-04T13:10:04;25.80;;;11.60;;
61385;SDS011;47256;18.904;-99.054;2023-06-04T13:12:31;24.08;;;11.48;;
61385;SDS011;47256;18.904;-99.054;2023-06-04T13:14:58;23.40;;;10.57;;
61385;SDS011;47256;18.904;-99.054;2023-06-04T13:17:28;25.10;;;10.80;;
61385;SDS011;47256;18.904;-99.054;2023-06-04T13:19:55;16.80;;;11.10;;
61385;SDS011;47256;18.904;-99.054;2023-06-04T13:22:22;20.33;;;10.75;;
61385;SDS011;47256;18.904;-99.054;2023-06-04T13:24:49;23.10;;;10.90;;
61385;SDS011;47256;18.904;-99.054;2023-06-04T13:27:16;21.75;;;10.65;;
61385;SDS011;47256;18.904;-99.054;2023-06-04T13:29:43;23.77;;;11.77;;
61385;SDS011;47256;18.904;-99.054;2023-06-04T13:32:10;21.98;;;11.43;;
61385;SDS011;47256;18.904;-99.054;2023-06-04T13:34:37;17.45;;;10.50;;
61385;SDS011;47256;18.904;-99.054;2023-06-04T13:37:06;26.13;;;10.95;;
61385;SDS011;47256;18.904;-99.054;2023-06-04T13:39:35;21.13;;;11.13;;
61385;SDS011;47256;18.904;-99.054;2023-06-04T13:42:02;25.13;;;10.05;;
61385;SDS011;47256;18.904;-99.054;2023-06-04T13:44:29;14.98;;;10.32;;
61385;SDS011;47256;18.904;-99.054;2023-06-04T13:46:58;26.63;;;9.98;;
61385;SDS011;47256;18.904;-99.054;2023-06-04T13:49:25;15.20;;;9.77;;
61385;SDS011;47256;18.904;-99.054;2023-06-04T13:51:52;17.52;;;10.90;;
61385;SDS011;47256;18.904;-99.054;2023-06-04T13:54:19;19.08;;;10.32;;
61385;SDS011;47256;18.904;-99.054;2023-06-04T13:56:47;14.50;;;9.30;;
61385;SDS011;47256;18.904;-99.054;2023-06-04T13:59:15;17.40;;;8.73;;
61385;SDS011;47256;18.904;-99.054;2023-06-04T14:01:41;19.95;;;9.20;;
61385;SDS011;47256;18.904;-99.054;2023-06-04T14:04:10;14.15;;;8.63;;
61385;SDS011;47256;18.904;-99.054;2023-06-04T14:06:37;20.92;;;9.02;;
61385;SDS011;47256;18.904;-99.054;2023-06-04T14:09:04;15.30;;;8.68;;
61385;SDS011;47256;18.904;-99.054;2023-06-04T14:11:32;15.45;;;7.35;;
61385;SDS011;47256;18.904;-99.054;2023-06-04T14:13:59;12.07;;;8.07;;
61385;SDS011;47256;18.904;-99.054;2023-06-04T14:16:27;11.85;;;7.43;;
61385;SDS011;47256;18.904;-99.054;2023-06-04T14:18:54;14.18;;;7.50;;
61385;SDS011;47256;18.904;-99.054;2023-06-04T14:21:21;12.23;;;7.93;;
61385;SDS011;47256;18.904;-99.054;2023-06-04T14:23:48;12.05;;;7.93;;
61385;SDS011;47256;18.904;-99.054;2023-06-04T14:26:16;10.75;;;7.22;;